sensor_id;sensor_type;location;lat;lon;timestamp;P1;durP1;ratioP1;P2;durP2;ratioP2
50241;SDS011;36126;43.222;27.874;2022-08-01T00:02:10;27.13;;;13.60;;
50241;SDS011;36126;43.222;27.874;2022-08-01T00:04:35;28.00;;;14.35;;
50241;SDS011;36126;43.222;27.874;2022-08-01T00:07:01;25.40;;;14.07;;
50241;SDS011;36126;43.222;27.874;2022-08-01T00:09:27;26.88;;;14.38;;
50241;SDS011;36126;43.222;27.874;2022-08-01T00:11:53;27.65;;;14.68;;
50241;SDS011;36126;43.222;27.874;2022-08-01T00:14:19;34.22;;;16.40;;
50241;SDS011;36126;43.222;27.874;2022-08-01T00:16:45;47.42;;;24.23;;
50241;SDS011;36126;43.222;27.874;2022-08-01T00:19:10;57.50;;;30.77;;
50241;SDS011;36126;43.222;27.874;2022-08-01T00:21:36;70.82;;;38.90;;
50241;SDS011;36126;43.222;27.874;2022-08-01T00:24:02;78.10;;;37.10;;
50241;SDS011;36126;43.222;27.874;2022-08-01T00:26:27;61.80;;;28.25;;
50241;SDS011;36126;43.222;27.874;2022-08-01T00:28:53;39.47;;;20.42;;
50241;SDS011;36126;43.222;27.874;2022-08-01T00:31:18;40.97;;;17.45;;
50241;SDS011;36126;43.222;27.874;2022-08-01T00:33:44;29.23;;;14.45;;
50241;SDS011;36126;43.222;27.874;2022-08-01T00:36:12;28.80;;;14.18;;
50241;SDS011;36126;43.222;27.874;2022-08-01T00:38:38;29.17;;;14.75;;
50241;SDS011;36126;43.222;27.874;2022-08-01T00:41:03;25.10;;;12.90;;
50241;SDS011;36126;43.222;27.874;2022-08-01T00:43:29;29.48;;;14.48;;
50241;SDS011;36126;43.222;27.874;2022-08-01T00:45:54;28.65;;;14.38;;
50241;SDS011;36126;43.222;27.874;2022-08-01T00:48:20;29.15;;;14.82;;
50241;SDS011;36126;43.222;27.874;2022-08-01T00:50:45;30.83;;;15.95;;
50241;SDS011;36126;43.222;27.874;2022-08-01T00:53:11;32.42;;;16.58;;
50241;SDS011;36126;43.222;27.874;2022-08-01T00:55:37;42.58;;;18.30;;
50241;SDS011;36126;43.222;27.874;2022-08-01T00:58:03;36.45;;;20.52;;
50241;SDS011;36126;43.222;27.874;2022-08-01T01:00:29;52.28;;;25.13;;
50241;SDS011;36126;43.222;27.874;2022-08-01T01:02:54;51.17;;;26.70;;
50241;SDS011;36126;43.222;27.874;2022-08-01T01:05:20;49.60;;;25.67;;
50241;SDS011;36126;43.222;27.874;2022-08-01T01:10:39;55.60;;;27.90;;
50241;SDS011;36126;43.222;27.874;2022-08-01T01:13:21;65.60;;;30.83;;
50241;SDS011;36126;43.222;27.874;2022-08-01T01:16:10;66.00;;;31.38;;
50241;SDS011;36126;43.222;27.874;2022-08-01T01:18:55;61.75;;;32.63;;
50241;SDS011;36126;43.222;27.874;2022-08-01T01:29:48;59.33;;;28.98;;
50241;SDS011;36126;43.222;27.874;2022-08-01T01:32:32;53.88;;;27.60;;
50241;SDS011;36126;43.222;27.874;2022-08-01T01:35:04;59.95;;;27.80;;
50241;SDS011;36126;43.222;27.874;2022-08-01T01:37:33;56.53;;;28.20;;
50241;SDS011;36126;43.222;27.874;2022-08-01T01:40:00;52.60;;;27.23;;
50241;SDS011;36126;43.222;27.874;2022-08-01T01:42:27;52.67;;;26.35;;
50241;SDS011;36126;43.222;27.874;2022-08-01T01:44:55;48.50;;;25.13;;
50241;SDS011;36126;43.222;27.874;2022-08-01T01:47:22;51.45;;;24.38;;
50241;SDS011;36126;43.222;27.874;2022-08-01T01:49:48;42.80;;;22.92;;
50241;SDS011;36126;43.222;27.874;2022-08-01T01:52:16;39.70;;;20.60;;
50241;SDS011;36126;43.222;27.874;2022-08-01T01:54:47;39.70;;;19.35;;
50241;SDS011;36126;43.222;27.874;2022-08-01T01:57:15;38.05;;;18.13;;
50241;SDS011;36126;43.222;27.874;2022-08-01T01:59:46;28.30;;;16.88;;
50241;SDS011;36126;43.222;27.874;2022-08-01T02:02:14;28.83;;;15.52;;
50241;SDS011;36126;43.222;27.874;2022-08-01T02:04:43;25.27;;;14.25;;
50241;SDS011;36126;43.222;27.874;2022-08-01T02:07:13;23.77;;;14.02;;
50241;SDS011;36126;43.222;27.874;2022-08-01T02:09:42;33.67;;;13.65;;
50241;SDS011;36126;43.222;27.874;2022-08-01T02:12:11;30.00;;;13.05;;
50241;SDS011;36126;43.222;27.874;2022-08-01T02:14:37;23.10;;;12.90;;
50241;SDS011;36126;43.222;27.874;2022-08-01T02:17:09;14.88;;;8.15;;
50241;SDS011;36126;43.222;27.874;2022-08-01T02:19:36;14.25;;;8.20;;
50241;SDS011;36126;43.222;27.874;2022-08-01T02:30:32;10.52;;;7.45;;
50241;SDS011;36126;43.222;27.874;2022-08-01T02:33:02;15.50;;;7.38;;
50241;SDS011;36126;43.222;27.874;2022-08-01T02:35:35;15.75;;;8.27;;
50241;SDS011;36126;43.222;27.874;2022-08-01T02:38:03;13.07;;;7.25;;
50241;SDS011;36126;43.222;27.874;2022-08-01T02:40:32;15.13;;;7.95;;
50241;SDS011;36126;43.222;27.874;2022-08-01T02:42:59;15.18;;;5.88;;
50241;SDS011;36126;43.222;27.874;2022-08-01T02:45:27;9.68;;;5.82;;
50241;SDS011;36126;43.222;27.874;2022-08-01T02:48:01;17.35;;;7.15;;
50241;SDS011;36126;43.222;27.874;2022-08-01T02:50:33;18.17;;;7.25;;
50241;SDS011;36126;43.222;27.874;2022-08-01T02:53:00;8.88;;;5.28;;
50241;SDS011;36126;43.222;27.874;2022-08-01T02:55:27;8.93;;;4.88;;
50241;SDS011;36126;43.222;27.874;2022-08-01T02:57:54;7.60;;;4.82;;
50241;SDS011;36126;43.222;27.874;2022-08-01T03:00:21;11.98;;;4.75;;
50241;SDS011;36126;43.222;27.874;2022-08-01T03:02:48;8.63;;;4.70;;
50241;SDS011;36126;43.222;27.874;2022-08-01T03:05:19;9.13;;;4.32;;
50241;SDS011;36126;43.222;27.874;2022-08-01T03:07:45;7.72;;;4.35;;
50241;SDS011;36126;43.222;27.874;2022-08-01T03:10:11;9.80;;;4.15;;
50241;SDS011;36126;43.222;27.874;2022-08-01T03:12:39;5.82;;;3.60;;
50241;SDS011;36126;43.222;27.874;2022-08-01T03:15:06;10.20;;;4.45;;
50241;SDS011;36126;43.222;27.874;2022-08-01T03:17:34;7.07;;;4.30;;
50241;SDS011;36126;43.222;27.874;2022-08-01T03:20:02;13.68;;;4.53;;
50241;SDS011;36126;43.222;27.874;2022-08-01T03:22:29;10.73;;;4.43;;
50241;SDS011;36126;43.222;27.874;2022-08-01T03:24:56;10.85;;;4.68;;
50241;SDS011;36126;43.222;27.874;2022-08-01T03:27:24;12.07;;;4.65;;
50241;SDS011;36126;43.222;27.874;2022-08-01T03:29:51;4.57;;;3.67;;
50241;SDS011;36126;43.222;27.874;2022-08-01T03:32:19;8.60;;;4.00;;
50241;SDS011;36126;43.222;27.874;2022-08-01T03:34:47;8.30;;;3.63;;
50241;SDS011;36126;43.222;27.874;2022-08-01T03:40:04;5.20;;;3.25;;
50241;SDS011;36126;43.222;27.874;2022-08-01T03:42:43;12.27;;;3.90;;
50241;SDS011;36126;43.222;27.874;2022-08-01T03:45:19;10.15;;;3.88;;
50241;SDS011;36126;43.222;27.874;2022-08-01T03:47:47;19.30;;;4.22;;
50241;SDS011;36126;43.222;27.874;2022-08-01T03:50:16;11.00;;;3.58;;
50241;SDS011;36126;43.222;27.874;2022-08-01T03:52:46;10.45;;;4.13;;
50241;SDS011;36126;43.222;27.874;2022-08-01T03:55:15;15.35;;;4.07;;
50241;SDS011;36126;43.222;27.874;2022-08-01T03:57:42;11.18;;;3.72;;
50241;SDS011;36126;43.222;27.874;2022-08-01T04:00:09;14.02;;;4.28;;
50241;SDS011;36126;43.222;27.874;2022-08-01T04:02:35;9.45;;;3.88;;
50241;SDS011;36126;43.222;27.874;2022-08-01T04:05:02;14.68;;;3.65;;
50241;SDS011;36126;43.222;27.874;2022-08-01T04:07:32;11.52;;;3.20;;
50241;SDS011;36126;43.222;27.874;2022-08-01T04:10:04;16.10;;;3.90;;
50241;SDS011;36126;43.222;27.874;2022-08-01T04:12:30;8.48;;;3.13;;
50241;SDS011;36126;43.222;27.874;2022-08-01T04:14:56;6.25;;;2.45;;
50241;SDS011;36126;43.222;27.874;2022-08-01T04:17:21;15.02;;;4.00;;
50241;SDS011;36126;43.222;27.874;2022-08-01T04:19:47;8.65;;;3.05;;
50241;SDS011;36126;43.222;27.874;2022-08-01T04:22:13;7.68;;;2.63;;
50241;SDS011;36126;43.222;27.874;2022-08-01T04:24:41;16.38;;;3.35;;
50241;SDS011;36126;43.222;27.874;2022-08-01T04:27:10;7.82;;;2.65;;
50241;SDS011;36126;43.222;27.874;2022-08-01T04:29:38;5.95;;;3.30;;
50241;SDS011;36126;43.222;27.874;2022-08-01T04:32:06;8.82;;;3.33;;
50241;SDS011;36126;43.222;27.874;2022-08-01T04:34:34;7.40;;;3.25;;
50241;SDS011;36126;43.222;27.874;2022-08-01T04:37:03;4.53;;;3.42;;
50241;SDS011;36126;43.222;27.874;2022-08-01T04:39:30;9.07;;;2.80;;
50241;SDS011;36126;43.222;27.874;2022-08-01T04:42:01;9.35;;;3.22;;
50241;SDS011;36126;43.222;27.874;2022-08-01T04:44:29;14.32;;;3.88;;
50241;SDS011;36126;43.222;27.874;2022-08-01T04:46:58;4.95;;;2.03;;
50241;SDS011;36126;43.222;27.874;2022-08-01T04:49:26;11.90;;;2.42;;
50241;SDS011;36126;43.222;27.874;2022-08-01T04:51:52;11.55;;;2.67;;
50241;SDS011;36126;43.222;27.874;2022-08-01T04:54:28;4.50;;;2.40;;
50241;SDS011;36126;43.222;27.874;2022-08-01T04:56:55;10.52;;;2.22;;
50241;SDS011;36126;43.222;27.874;2022-08-01T04:59:35;10.48;;;2.10;;
50241;SDS011;36126;43.222;27.874;2022-08-01T05:02:05;6.85;;;2.33;;
50241;SDS011;36126;43.222;27.874;2022-08-01T05:04:38;8.15;;;2.55;;
50241;SDS011;36126;43.222;27.874;2022-08-01T05:07:05;13.50;;;3.53;;
50241;SDS011;36126;43.222;27.874;2022-08-01T05:09:31;10.32;;;3.22;;
50241;SDS011;36126;43.222;27.874;2022-08-01T05:11:58;3.42;;;1.80;;
50241;SDS011;36126;43.222;27.874;2022-08-01T05:14:27;5.72;;;2.15;;
50241;SDS011;36126;43.222;27.874;2022-08-01T05:16:57;10.80;;;2.97;;
50241;SDS011;36126;43.222;27.874;2022-08-01T05:19:24;8.27;;;2.22;;
50241;SDS011;36126;43.222;27.874;2022-08-01T05:21:50;5.90;;;2.03;;
50241;SDS011;36126;43.222;27.874;2022-08-01T05:24:15;5.82;;;2.20;;
50241;SDS011;36126;43.222;27.874;2022-08-01T05:26:41;13.35;;;2.70;;
50241;SDS011;36126;43.222;27.874;2022-08-01T05:29:07;4.45;;;2.20;;
50241;SDS011;36126;43.222;27.874;2022-08-01T05:31:33;8.30;;;2.05;;
50241;SDS011;36126;43.222;27.874;2022-08-01T05:34:01;6.60;;;1.80;;
50241;SDS011;36126;43.222;27.874;2022-08-01T05:36:28;17.52;;;3.00;;
50241;SDS011;36126;43.222;27.874;2022-08-01T05:38:55;5.53;;;1.88;;
50241;SDS011;36126;43.222;27.874;2022-08-01T05:41:20;3.97;;;2.10;;
50241;SDS011;36126;43.222;27.874;2022-08-01T05:43:46;14.52;;;2.60;;
50241;SDS011;36126;43.222;27.874;2022-08-01T05:46:12;4.55;;;2.00;;
50241;SDS011;36126;43.222;27.874;2022-08-01T05:48:37;6.55;;;1.80;;
50241;SDS011;36126;43.222;27.874;2022-08-01T05:51:03;3.33;;;1.95;;
50241;SDS011;36126;43.222;27.874;2022-08-01T05:53:29;3.97;;;2.17;;
50241;SDS011;36126;43.222;27.874;2022-08-01T05:55:55;7.38;;;2.38;;
50241;SDS011;36126;43.222;27.874;2022-08-01T05:58:21;7.38;;;3.65;;
50241;SDS011;36126;43.222;27.874;2022-08-01T06:00:46;5.32;;;1.73;;
50241;SDS011;36126;43.222;27.874;2022-08-01T06:03:12;4.82;;;2.10;;
50241;SDS011;36126;43.222;27.874;2022-08-01T06:05:39;14.20;;;2.50;;
50241;SDS011;36126;43.222;27.874;2022-08-01T06:08:04;4.00;;;2.75;;
50241;SDS011;36126;43.222;27.874;2022-08-01T06:10:30;7.35;;;2.92;;
50241;SDS011;36126;43.222;27.874;2022-08-01T06:12:56;2.72;;;1.80;;
50241;SDS011;36126;43.222;27.874;2022-08-01T06:15:21;6.55;;;3.20;;
50241;SDS011;36126;43.222;27.874;2022-08-01T06:17:47;10.23;;;2.33;;
50241;SDS011;36126;43.222;27.874;2022-08-01T06:20:12;2.75;;;2.10;;
50241;SDS011;36126;43.222;27.874;2022-08-01T06:22:38;4.95;;;3.50;;
50241;SDS011;36126;43.222;27.874;2022-08-01T06:25:04;4.03;;;2.60;;
50241;SDS011;36126;43.222;27.874;2022-08-01T06:27:30;4.25;;;2.00;;
50241;SDS011;36126;43.222;27.874;2022-08-01T06:29:55;6.07;;;1.50;;
50241;SDS011;36126;43.222;27.874;2022-08-01T06:32:22;5.47;;;2.33;;
50241;SDS011;36126;43.222;27.874;2022-08-01T06:34:48;4.38;;;1.27;;
50241;SDS011;36126;43.222;27.874;2022-08-01T06:37:14;4.22;;;1.70;;
50241;SDS011;36126;43.222;27.874;2022-08-01T06:39:40;6.72;;;1.73;;
50241;SDS011;36126;43.222;27.874;2022-08-01T06:42:06;6.05;;;1.50;;
50241;SDS011;36126;43.222;27.874;2022-08-01T06:44:32;7.18;;;2.30;;
50241;SDS011;36126;43.222;27.874;2022-08-01T06:46:57;3.95;;;1.40;;
50241;SDS011;36126;43.222;27.874;2022-08-01T06:49:25;6.78;;;1.70;;
50241;SDS011;36126;43.222;27.874;2022-08-01T06:51:51;3.25;;;1.67;;
50241;SDS011;36126;43.222;27.874;2022-08-01T06:54:16;8.63;;;2.92;;
50241;SDS011;36126;43.222;27.874;2022-08-01T06:56:42;8.85;;;3.22;;
50241;SDS011;36126;43.222;27.874;2022-08-01T06:59:08;3.10;;;1.70;;
50241;SDS011;36126;43.222;27.874;2022-08-01T07:01:34;5.65;;;2.28;;
50241;SDS011;36126;43.222;27.874;2022-08-01T07:03:59;9.40;;;2.15;;
50241;SDS011;36126;43.222;27.874;2022-08-01T07:06:25;2.92;;;2.08;;
50241;SDS011;36126;43.222;27.874;2022-08-01T07:08:51;16.90;;;2.85;;
50241;SDS011;36126;43.222;27.874;2022-08-01T07:11:17;5.38;;;3.60;;
50241;SDS011;36126;43.222;27.874;2022-08-01T07:13:43;10.05;;;4.18;;
50241;SDS011;36126;43.222;27.874;2022-08-01T07:16:10;13.02;;;6.78;;
50241;SDS011;36126;43.222;27.874;2022-08-01T07:18:39;8.75;;;4.13;;
50241;SDS011;36126;43.222;27.874;2022-08-01T07:21:06;5.80;;;2.50;;
50241;SDS011;36126;43.222;27.874;2022-08-01T07:23:31;5.40;;;2.95;;
50241;SDS011;36126;43.222;27.874;2022-08-01T07:25:57;9.95;;;3.92;;
50241;SDS011;36126;43.222;27.874;2022-08-01T07:28:23;7.38;;;3.78;;
50241;SDS011;36126;43.222;27.874;2022-08-01T07:30:49;10.27;;;3.92;;
50241;SDS011;36126;43.222;27.874;2022-08-01T07:33:15;3.38;;;1.55;;
50241;SDS011;36126;43.222;27.874;2022-08-01T07:35:40;6.03;;;1.92;;
50241;SDS011;36126;43.222;27.874;2022-08-01T07:38:06;3.47;;;1.23;;
50241;SDS011;36126;43.222;27.874;2022-08-01T07:40:32;6.10;;;1.90;;
50241;SDS011;36126;43.222;27.874;2022-08-01T07:42:58;7.43;;;2.92;;
50241;SDS011;36126;43.222;27.874;2022-08-01T07:45:23;1.40;;;1.20;;
50241;SDS011;36126;43.222;27.874;2022-08-01T07:47:49;3.65;;;1.60;;
50241;SDS011;36126;43.222;27.874;2022-08-01T07:50:14;1.70;;;1.23;;
50241;SDS011;36126;43.222;27.874;2022-08-01T07:52:40;2.97;;;1.17;;
50241;SDS011;36126;43.222;27.874;2022-08-01T07:55:06;3.08;;;1.50;;
50241;SDS011;36126;43.222;27.874;2022-08-01T07:57:33;8.80;;;2.60;;
50241;SDS011;36126;43.222;27.874;2022-08-01T07:59:59;3.80;;;1.58;;
50241;SDS011;36126;43.222;27.874;2022-08-01T08:02:24;5.85;;;1.67;;
50241;SDS011;36126;43.222;27.874;2022-08-01T08:04:49;14.50;;;1.83;;
50241;SDS011;36126;43.222;27.874;2022-08-01T08:07:15;5.53;;;1.90;;
50241;SDS011;36126;43.222;27.874;2022-08-01T08:09:41;5.35;;;2.45;;
50241;SDS011;36126;43.222;27.874;2022-08-01T08:12:06;11.82;;;3.03;;
50241;SDS011;36126;43.222;27.874;2022-08-01T08:14:32;5.80;;;1.80;;
50241;SDS011;36126;43.222;27.874;2022-08-01T08:16:58;3.67;;;2.05;;
50241;SDS011;36126;43.222;27.874;2022-08-01T08:19:23;7.55;;;1.98;;
50241;SDS011;36126;43.222;27.874;2022-08-01T08:21:49;10.30;;;5.45;;
50241;SDS011;36126;43.222;27.874;2022-08-01T08:24:14;6.32;;;2.78;;
50241;SDS011;36126;43.222;27.874;2022-08-01T08:26:50;7.30;;;3.67;;
50241;SDS011;36126;43.222;27.874;2022-08-01T08:29:19;6.65;;;3.28;;
50241;SDS011;36126;43.222;27.874;2022-08-01T08:31:45;4.15;;;2.20;;
50241;SDS011;36126;43.222;27.874;2022-08-01T08:34:11;2.13;;;1.63;;
50241;SDS011;36126;43.222;27.874;2022-08-01T08:36:37;3.58;;;1.35;;
50241;SDS011;36126;43.222;27.874;2022-08-01T08:39:04;9.25;;;3.33;;
50241;SDS011;36126;43.222;27.874;2022-08-01T08:41:30;5.13;;;2.72;;
50241;SDS011;36126;43.222;27.874;2022-08-01T08:43:57;2.33;;;1.30;;
50241;SDS011;36126;43.222;27.874;2022-08-01T08:46:26;2.53;;;1.70;;
50241;SDS011;36126;43.222;27.874;2022-08-01T08:48:53;5.18;;;3.60;;
50241;SDS011;36126;43.222;27.874;2022-08-01T08:51:20;1.42;;;1.20;;
50241;SDS011;36126;43.222;27.874;2022-08-01T08:53:48;8.25;;;2.75;;
50241;SDS011;36126;43.222;27.874;2022-08-01T08:56:17;5.28;;;3.17;;
50241;SDS011;36126;43.222;27.874;2022-08-01T08:58:44;6.85;;;3.40;;
50241;SDS011;36126;43.222;27.874;2022-08-01T09:01:11;7.88;;;3.50;;
50241;SDS011;36126;43.222;27.874;2022-08-01T09:03:40;7.88;;;5.72;;
50241;SDS011;36126;43.222;27.874;2022-08-01T09:06:06;3.92;;;2.35;;
50241;SDS011;36126;43.222;27.874;2022-08-01T09:08:32;12.80;;;6.53;;
50241;SDS011;36126;43.222;27.874;2022-08-01T09:10:58;13.77;;;5.93;;
50241;SDS011;36126;43.222;27.874;2022-08-01T09:13:28;4.03;;;2.72;;
50241;SDS011;36126;43.222;27.874;2022-08-01T09:15:54;1.92;;;1.13;;
50241;SDS011;36126;43.222;27.874;2022-08-01T09:18:34;2.53;;;1.30;;
50241;SDS011;36126;43.222;27.874;2022-08-01T09:23:53;6.18;;;2.67;;
50241;SDS011;36126;43.222;27.874;2022-08-01T09:26:19;3.25;;;2.00;;
50241;SDS011;36126;43.222;27.874;2022-08-01T09:28:52;2.72;;;2.08;;
50241;SDS011;36126;43.222;27.874;2022-08-01T09:31:19;3.95;;;1.67;;
50241;SDS011;36126;43.222;27.874;2022-08-01T09:33:54;10.07;;;6.38;;
50241;SDS011;36126;43.222;27.874;2022-08-01T09:39:18;11.05;;;3.90;;
50241;SDS011;36126;43.222;27.874;2022-08-01T09:41:45;2.17;;;1.50;;
50241;SDS011;36126;43.222;27.874;2022-08-01T09:44:12;3.72;;;2.95;;
50241;SDS011;36126;43.222;27.874;2022-08-01T09:46:51;5.20;;;1.45;;
50241;SDS011;36126;43.222;27.874;2022-08-01T09:49:29;1.88;;;0.90;;
50241;SDS011;36126;43.222;27.874;2022-08-01T09:51:56;2.10;;;1.05;;
50241;SDS011;36126;43.222;27.874;2022-08-01T09:54:30;3.10;;;1.00;;
50241;SDS011;36126;43.222;27.874;2022-08-01T09:59:40;2.00;;;0.68;;
50241;SDS011;36126;43.222;27.874;2022-08-01T10:02:12;12.95;;;7.63;;
50241;SDS011;36126;43.222;27.874;2022-08-01T10:04:49;4.13;;;2.92;;
50241;SDS011;36126;43.222;27.874;2022-08-01T10:07:17;3.40;;;1.30;;
50241;SDS011;36126;43.222;27.874;2022-08-01T10:09:44;1.02;;;0.80;;
50241;SDS011;36126;43.222;27.874;2022-08-01T10:12:12;11.65;;;7.53;;
50241;SDS011;36126;43.222;27.874;2022-08-01T10:14:40;6.90;;;4.68;;
50241;SDS011;36126;43.222;27.874;2022-08-01T10:17:07;7.03;;;1.73;;
50241;SDS011;36126;43.222;27.874;2022-08-01T10:19:34;3.78;;;2.50;;
50241;SDS011;36126;43.222;27.874;2022-08-01T10:22:01;1.63;;;1.33;;
50241;SDS011;36126;43.222;27.874;2022-08-01T10:24:28;5.45;;;3.58;;
50241;SDS011;36126;43.222;27.874;2022-08-01T10:26:59;3.67;;;1.63;;
50241;SDS011;36126;43.222;27.874;2022-08-01T10:29:30;1.38;;;0.82;;
50241;SDS011;36126;43.222;27.874;2022-08-01T10:32:01;5.45;;;1.60;;
50241;SDS011;36126;43.222;27.874;2022-08-01T10:34:29;2.13;;;0.95;;
50241;SDS011;36126;43.222;27.874;2022-08-01T10:36:55;4.65;;;3.45;;
50241;SDS011;36126;43.222;27.874;2022-08-01T10:39:21;3.03;;;1.05;;
50241;SDS011;36126;43.222;27.874;2022-08-01T10:41:47;1.75;;;1.40;;
50241;SDS011;36126;43.222;27.874;2022-08-01T10:44:13;14.48;;;8.07;;
50241;SDS011;36126;43.222;27.874;2022-08-01T10:46:40;5.82;;;2.42;;
50241;SDS011;36126;43.222;27.874;2022-08-01T10:49:16;2.83;;;1.20;;
50241;SDS011;36126;43.222;27.874;2022-08-01T10:51:45;1.02;;;0.93;;
50241;SDS011;36126;43.222;27.874;2022-08-01T10:54:12;3.17;;;1.10;;
50241;SDS011;36126;43.222;27.874;2022-08-01T10:56:48;6.68;;;3.08;;
50241;SDS011;36126;43.222;27.874;2022-08-01T10:59:28;13.35;;;2.42;;
50241;SDS011;36126;43.222;27.874;2022-08-01T11:01:58;4.65;;;2.17;;
50241;SDS011;36126;43.222;27.874;2022-08-01T11:07:03;1.27;;;1.17;;
50241;SDS011;36126;43.222;27.874;2022-08-01T11:09:38;4.32;;;2.15;;
50241;SDS011;36126;43.222;27.874;2022-08-01T11:15:21;2.63;;;1.33;;
50241;SDS011;36126;43.222;27.874;2022-08-01T11:17:30;3.60;;;1.30;;
50241;SDS011;36126;43.222;27.874;2022-08-01T11:20:13;4.05;;;1.88;;
50241;SDS011;36126;43.222;27.874;2022-08-01T11:25:24;7.50;;;2.42;;
50241;SDS011;36126;43.222;27.874;2022-08-01T11:30:49;4.53;;;2.38;;
50241;SDS011;36126;43.222;27.874;2022-08-01T11:33:17;5.63;;;3.03;;
50241;SDS011;36126;43.222;27.874;2022-08-01T11:41:23;5.75;;;3.25;;
50241;SDS011;36126;43.222;27.874;2022-08-01T11:43:54;10.13;;;2.80;;
50241;SDS011;36126;43.222;27.874;2022-08-01T11:54:38;5.22;;;1.70;;
50241;SDS011;36126;43.222;27.874;2022-08-01T11:57:29;2.45;;;1.60;;
50241;SDS011;36126;43.222;27.874;2022-08-01T11:59:59;2.00;;;1.17;;
50241;SDS011;36126;43.222;27.874;2022-08-01T12:02:29;5.22;;;1.42;;
50241;SDS011;36126;43.222;27.874;2022-08-01T12:04:57;1.67;;;0.73;;
50241;SDS011;36126;43.222;27.874;2022-08-01T12:07:28;3.92;;;2.00;;
50241;SDS011;36126;43.222;27.874;2022-08-01T12:12:24;2.03;;;0.98;;
50241;SDS011;36126;43.222;27.874;2022-08-01T12:14:57;8.02;;;5.35;;
50241;SDS011;36126;43.222;27.874;2022-08-01T12:17:33;2.10;;;1.45;;
50241;SDS011;36126;43.222;27.874;2022-08-01T12:20:07;5.28;;;1.85;;
50241;SDS011;36126;43.222;27.874;2022-08-01T12:22:35;2.70;;;1.40;;
50241;SDS011;36126;43.222;27.874;2022-08-01T12:25:07;5.45;;;2.28;;
50241;SDS011;36126;43.222;27.874;2022-08-01T12:27:36;4.00;;;1.88;;
50241;SDS011;36126;43.222;27.874;2022-08-01T12:30:04;4.13;;;1.20;;
50241;SDS011;36126;43.222;27.874;2022-08-01T12:32:41;3.35;;;1.23;;
50241;SDS011;36126;43.222;27.874;2022-08-01T12:35:13;3.55;;;1.45;;
50241;SDS011;36126;43.222;27.874;2022-08-01T12:37:46;18.40;;;13.05;;
50241;SDS011;36126;43.222;27.874;2022-08-01T12:40:17;5.07;;;3.50;;
50241;SDS011;36126;43.222;27.874;2022-08-01T12:42:51;5.60;;;2.55;;
50241;SDS011;36126;43.222;27.874;2022-08-01T12:45:23;3.97;;;1.50;;
50241;SDS011;36126;43.222;27.874;2022-08-01T12:47:51;7.93;;;2.13;;
50241;SDS011;36126;43.222;27.874;2022-08-01T12:50:19;3.92;;;1.50;;
50241;SDS011;36126;43.222;27.874;2022-08-01T12:52:50;3.65;;;2.40;;
50241;SDS011;36126;43.222;27.874;2022-08-01T12:55:17;3.78;;;1.83;;
50241;SDS011;36126;43.222;27.874;2022-08-01T12:57:46;8.00;;;4.00;;
50241;SDS011;36126;43.222;27.874;2022-08-01T13:00:23;3.53;;;1.33;;
50241;SDS011;36126;43.222;27.874;2022-08-01T13:03:04;3.30;;;1.48;;
50241;SDS011;36126;43.222;27.874;2022-08-01T13:08:19;4.10;;;2.03;;
50241;SDS011;36126;43.222;27.874;2022-08-01T13:10:51;1.70;;;1.13;;
50241;SDS011;36126;43.222;27.874;2022-08-01T13:13:40;2.00;;;1.45;;
50241;SDS011;36126;43.222;27.874;2022-08-01T13:16:12;11.45;;;6.60;;
50241;SDS011;36126;43.222;27.874;2022-08-01T13:18:39;7.22;;;3.67;;
50241;SDS011;36126;43.222;27.874;2022-08-01T13:21:21;8.05;;;2.67;;
50241;SDS011;36126;43.222;27.874;2022-08-01T13:29:05;3.17;;;2.22;;
50241;SDS011;36126;43.222;27.874;2022-08-01T13:31:33;4.03;;;2.03;;
50241;SDS011;36126;43.222;27.874;2022-08-01T13:33:59;2.45;;;1.55;;
50241;SDS011;36126;43.222;27.874;2022-08-01T13:36:25;11.63;;;5.88;;
50241;SDS011;36126;43.222;27.874;2022-08-01T13:38:53;7.18;;;2.40;;
50241;SDS011;36126;43.222;27.874;2022-08-01T13:41:38;6.07;;;2.45;;
50241;SDS011;36126;43.222;27.874;2022-08-01T13:44:03;3.83;;;2.60;;
50241;SDS011;36126;43.222;27.874;2022-08-01T13:46:30;6.38;;;2.20;;
50241;SDS011;36126;43.222;27.874;2022-08-01T13:48:56;3.90;;;1.50;;
50241;SDS011;36126;43.222;27.874;2022-08-01T13:51:21;36.53;;;26.63;;
50241;SDS011;36126;43.222;27.874;2022-08-01T13:53:47;15.38;;;8.88;;
50241;SDS011;36126;43.222;27.874;2022-08-01T13:56:12;5.68;;;3.90;;
50241;SDS011;36126;43.222;27.874;2022-08-01T13:58:38;2.47;;;1.42;;
50241;SDS011;36126;43.222;27.874;2022-08-01T14:01:03;6.85;;;1.83;;
50241;SDS011;36126;43.222;27.874;2022-08-01T14:03:29;4.70;;;1.45;;
50241;SDS011;36126;43.222;27.874;2022-08-01T14:05:55;3.75;;;1.70;;
50241;SDS011;36126;43.222;27.874;2022-08-01T14:08:21;3.25;;;1.58;;
50241;SDS011;36126;43.222;27.874;2022-08-01T14:10:46;2.60;;;1.70;;
50241;SDS011;36126;43.222;27.874;2022-08-01T14:13:12;4.78;;;2.70;;
50241;SDS011;36126;43.222;27.874;2022-08-01T14:15:39;13.30;;;7.00;;
50241;SDS011;36126;43.222;27.874;2022-08-01T14:18:05;3.00;;;2.22;;
50241;SDS011;36126;43.222;27.874;2022-08-01T14:20:32;7.57;;;3.67;;
50241;SDS011;36126;43.222;27.874;2022-08-01T14:23:02;4.72;;;2.50;;
50241;SDS011;36126;43.222;27.874;2022-08-01T14:25:27;8.20;;;2.28;;
50241;SDS011;36126;43.222;27.874;2022-08-01T14:27:53;2.45;;;2.10;;
50241;SDS011;36126;43.222;27.874;2022-08-01T14:30:19;3.13;;;2.08;;
50241;SDS011;36126;43.222;27.874;2022-08-01T14:32:45;3.47;;;2.03;;
50241;SDS011;36126;43.222;27.874;2022-08-01T14:35:10;2.72;;;2.03;;
50241;SDS011;36126;43.222;27.874;2022-08-01T14:37:36;6.50;;;2.88;;
50241;SDS011;36126;43.222;27.874;2022-08-01T14:40:01;3.28;;;2.53;;
50241;SDS011;36126;43.222;27.874;2022-08-01T14:42:32;4.35;;;2.53;;
50241;SDS011;36126;43.222;27.874;2022-08-01T14:44:58;6.60;;;2.47;;
50241;SDS011;36126;43.222;27.874;2022-08-01T14:47:24;9.73;;;4.32;;
50241;SDS011;36126;43.222;27.874;2022-08-01T14:49:50;4.82;;;3.00;;
50241;SDS011;36126;43.222;27.874;2022-08-01T14:52:15;6.03;;;3.17;;
50241;SDS011;36126;43.222;27.874;2022-08-01T14:54:41;5.43;;;3.20;;
50241;SDS011;36126;43.222;27.874;2022-08-01T14:57:07;4.03;;;3.05;;
50241;SDS011;36126;43.222;27.874;2022-08-01T14:59:32;3.00;;;2.70;;
50241;SDS011;36126;43.222;27.874;2022-08-01T15:01:58;6.95;;;3.35;;
50241;SDS011;36126;43.222;27.874;2022-08-01T15:04:23;9.68;;;5.07;;
50241;SDS011;36126;43.222;27.874;2022-08-01T15:06:49;6.78;;;4.13;;
50241;SDS011;36126;43.222;27.874;2022-08-01T15:09:15;4.22;;;3.53;;
50241;SDS011;36126;43.222;27.874;2022-08-01T15:11:40;7.93;;;3.35;;
50241;SDS011;36126;43.222;27.874;2022-08-01T15:14:07;4.75;;;3.78;;
50241;SDS011;36126;43.222;27.874;2022-08-01T15:16:51;3.90;;;2.95;;
50241;SDS011;36126;43.222;27.874;2022-08-01T15:19:17;5.55;;;3.42;;
50241;SDS011;36126;43.222;27.874;2022-08-01T15:21:42;5.07;;;3.75;;
50241;SDS011;36126;43.222;27.874;2022-08-01T15:24:08;4.80;;;3.67;;
50241;SDS011;36126;43.222;27.874;2022-08-01T15:26:34;4.53;;;4.10;;
50241;SDS011;36126;43.222;27.874;2022-08-01T15:29:00;4.25;;;3.50;;
50241;SDS011;36126;43.222;27.874;2022-08-01T15:31:26;6.72;;;4.03;;
50241;SDS011;36126;43.222;27.874;2022-08-01T15:33:51;4.72;;;3.92;;
50241;SDS011;36126;43.222;27.874;2022-08-01T15:36:17;8.55;;;3.67;;
50241;SDS011;36126;43.222;27.874;2022-08-01T15:38:42;4.88;;;3.58;;
50241;SDS011;36126;43.222;27.874;2022-08-01T15:41:08;6.78;;;3.90;;